createdAt,value
2023-10-08T00:01:56.753Z,101909.59
2023-10-08T00:04:26.382Z,101911.28
2023-10-08T00:06:56.945Z,101915.91
2023-10-08T00:09:26.878Z,101917.66
2023-10-08T00:11:57.078Z,101927.44
2023-10-08T00:14:26.518Z,101933.94
2023-10-08T00:16:55.743Z,101926.50
2023-10-08T00:19:25.597Z,101923.22
2023-10-08T00:21:57.219Z,101932.66
2023-10-08T00:24:28.147Z,101935.31
2023-10-08T00:26:57.532Z,101929.41
2023-10-08T00:29:27.456Z,101929.63
2023-10-08T00:31:58.107Z,101937.28
2023-10-08T00:34:28.482Z,101951.50
2023-10-08T00:36:59.260Z,101945.59
2023-10-08T00:39:35.069Z,101968.88
2023-10-08T00:42:05.909Z,101981.59
2023-10-08T00:44:39.426Z,101989.72
2023-10-08T00:47:09.436Z,101995.72
2023-10-08T00:49:55.634Z,101993.66
2023-10-08T00:52:31.595Z,101999.81
2023-10-08T00:55:22.688Z,101998.88
2023-10-08T00:57:58.787Z,101982.19
2023-10-08T01:00:38.819Z,101979.69
2023-10-08T01:03:16.577Z,101972.84
2023-10-08T01:05:49.518Z,101986.28
2023-10-08T01:08:24.122Z,101982.81
2023-10-08T01:11:01.925Z,101973.97
2023-10-08T01:13:45.349Z,101986.91
2023-10-08T01:16:16.234Z,101991.19
2023-10-08T01:18:51.177Z,101994.97
2023-10-08T01:21:35.303Z,102001.75
2023-10-08T01:24:08.259Z,101992.84
2023-10-08T01:26:40.928Z,101993.25
2023-10-08T01:29:20.539Z,101997.16
2023-10-08T01:31:51.662Z,102003.44
2023-10-08T01:34:27.796Z,102004.47
2023-10-08T01:37:00.932Z,102007.00
2023-10-08T01:39:33.485Z,101998.94
2023-10-08T01:42:02.682Z,102007.50
2023-10-08T01:44:32.422Z,102004.28
2023-10-08T01:47:01.886Z,102006.28
2023-10-08T01:49:34.519Z,102001.88
2023-10-08T01:52:08.448Z,102003.31
2023-10-08T01:54:39.165Z,101999.09
2023-10-08T01:57:10.656Z,101975.47
2023-10-08T01:59:40.224Z,101975.09
2023-10-08T02:02:09.538Z,101980.63
2023-10-08T02:04:39.041Z,101967.75
2023-10-08T02:07:09.887Z,101958.25
2023-10-08T02:09:41.911Z,101959.00
2023-10-08T02:12:15.307Z,101966.31
2023-10-08T02:14:45.776Z,101977.22
2023-10-08T02:17:15.111Z,101991.69
2023-10-08T02:19:44.388Z,101996.72
2023-10-08T02:22:14.442Z,101993.22
2023-10-08T02:24:45.206Z,102007.47
2023-10-08T02:27:16.258Z,102013.63
2023-10-08T02:29:45.505Z,102030.75
2023-10-08T02:32:14.882Z,102033.91
2023-10-08T02:34:44.082Z,102030.66
2023-10-08T02:37:13.959Z,102024.56
2023-10-08T02:39:45.843Z,102037.94
2023-10-08T02:42:15.477Z,102043.47
2023-10-08T02:44:44.685Z,102046.38
2023-10-08T02:47:17.898Z,102053.59
2023-10-08T02:49:49.519Z,102046.28
2023-10-08T02:52:19.007Z,102057.47
2023-10-08T02:54:53.819Z,102053.44
2023-10-08T02:57:23.130Z,102043.50
2023-10-08T02:59:55.352Z,102059.59
2023-10-08T03:02:26.066Z,102079.16
2023-10-08T03:04:55.434Z,102089.72
2023-10-08T03:07:33.106Z,102083.66
2023-10-08T03:10:07.953Z,102085.06
2023-10-08T03:12:37.419Z,102077.09
2023-10-08T03:15:15.024Z,102067.94
2023-10-08T03:17:52.177Z,102076.94
2023-10-08T03:20:39.497Z,102090.19
2023-10-08T03:23:14.325Z,102095.28
2023-10-08T03:25:47.163Z,102090.31
2023-10-08T03:28:17.634Z,102091.53
2023-10-08T03:30:52.780Z,102103.13
2023-10-08T03:33:28.066Z,102095.81
2023-10-08T03:35:57.421Z,102103.50
2023-10-08T03:38:40.977Z,102099.28
2023-10-08T03:41:17.434Z,102099.56
2023-10-08T03:43:54.186Z,102108.91
2023-10-08T03:46:25.378Z,102121.28
2023-10-08T03:48:58.465Z,102131.94
2023-10-08T03:51:29.013Z,102132.88
2023-10-08T03:54:11.306Z,102110.69
2023-10-08T03:56:46.652Z,102105.72
2023-10-08T03:59:21.770Z,102109.38
2023-10-08T04:01:55.704Z,102102.91
2023-10-08T04:04:31.793Z,102123.94
2023-10-08T04:07:23.838Z,102129.28
2023-10-08T04:10:00.723Z,102120.94
2023-10-08T04:12:33.119Z,102140.72
2023-10-08T04:15:02.323Z,102131.41
2023-10-08T04:17:31.633Z,102130.19
2023-10-08T04:20:00.994Z,102129.31
2023-10-08T04:22:30.393Z,102139.53
2023-10-08T04:25:03.842Z,102141.38
2023-10-08T04:27:36.097Z,102137.19
2023-10-08T04:30:05.637Z,102142.59
2023-10-08T04:32:34.938Z,102152.31
2023-10-08T04:35:09.086Z,102172.13
2023-10-08T04:37:41.786Z,102168.19
2023-10-08T04:40:17.300Z,102190.47
2023-10-08T04:42:49.375Z,102195.63
2023-10-08T04:45:27.255Z,102197.38
2023-10-08T04:48:00.000Z,102193.59
2023-10-08T04:50:31.791Z,102183.53
2023-10-08T04:53:00.973Z,102181.75
2023-10-08T04:55:30.914Z,102182.81
2023-10-08T04:58:05.139Z,102193.00
2023-10-08T05:00:52.195Z,102189.34
2023-10-08T05:03:23.959Z,102192.81
2023-10-08T05:06:08.509Z,102192.03
2023-10-08T05:08:48.768Z,102193.50
2023-10-08T05:11:38.004Z,102198.31
2023-10-08T05:14:17.826Z,102200.00
2023-10-08T05:17:01.564Z,102210.97
2023-10-08T05:19:49.342Z,102216.81
2023-10-08T05:22:19.500Z,102209.63
2023-10-08T05:25:08.690Z,102220.78
2023-10-08T05:28:07.976Z,102228.56
2023-10-08T05:30:43.130Z,102224.66
2023-10-08T05:33:25.456Z,102209.28
2023-10-08T05:36:10.932Z,102217.41
2023-10-08T05:38:49.726Z,102228.97
2023-10-08T05:41:29.217Z,102223.16
2023-10-08T05:44:12.693Z,102230.53
2023-10-08T05:46:50.336Z,102233.63
2023-10-08T05:49:39.334Z,102240.69
2023-10-08T05:52:25.249Z,102228.91
2023-10-08T05:55:16.953Z,102235.75
2023-10-08T05:57:53.047Z,102232.38
2023-10-08T06:00:39.548Z,102241.00
2023-10-08T06:03:12.966Z,102242.81
2023-10-08T06:06:03.935Z,102244.53
2023-10-08T06:08:50.321Z,102256.84
2023-10-08T06:11:38.401Z,102259.44
2023-10-08T06:14:14.568Z,102270.88
2023-10-08T06:16:45.338Z,102274.31
2023-10-08T06:19:15.556Z,102275.16
2023-10-08T06:21:46.421Z,102282.31
2023-10-08T06:24:18.421Z,102287.66
2023-10-08T06:26:50.837Z,102290.28
2023-10-08T06:29:29.177Z,102294.56
2023-10-08T06:32:03.108Z,102298.81
2023-10-08T06:34:33.851Z,102301.16
2023-10-08T06:37:05.013Z,102306.13
2023-10-08T06:39:48.528Z,102315.69
2023-10-08T06:42:18.631Z,102322.38
2023-10-08T06:44:49.646Z,102317.88
2023-10-08T06:47:20.069Z,102328.19
2023-10-08T06:49:52.886Z,102331.22
2023-10-08T06:52:22.247Z,102337.22
2023-10-08T06:54:54.247Z,102338.59
2023-10-08T06:57:23.669Z,102350.41
2023-10-08T06:59:52.837Z,102342.09
2023-10-08T07:02:22.074Z,102345.91
2023-10-08T07:04:52.991Z,102347.25
2023-10-08T07:07:22.239Z,102349.38
2023-10-08T07:09:52.986Z,102354.03
2023-10-08T07:12:25.885Z,102353.69
2023-10-08T07:14:55.475Z,102356.56
2023-10-08T07:17:29.076Z,102347.91
2023-10-08T07:19:59.674Z,102348.69
2023-10-08T07:22:30.281Z,102355.72
2023-10-08T07:25:00.374Z,102355.34
2023-10-08T07:27:33.348Z,102359.91
2023-10-08T07:30:11.410Z,102366.69
2023-10-08T07:32:40.856Z,102369.53
2023-10-08T07:35:25.608Z,102363.16
2023-10-08T07:37:56.116Z,102361.06
2023-10-08T07:40:30.054Z,102364.81
2023-10-08T07:43:07.360Z,102369.22
2023-10-08T07:45:37.104Z,102364.22
2023-10-08T07:48:10.994Z,102364.81
2023-10-08T07:50:46.294Z,102364.00
2023-10-08T07:53:19.749Z,102357.56
2023-10-08T07:55:49.865Z,102371.50
2023-10-08T07:58:19.911Z,102372.06
2023-10-08T08:00:53.604Z,102378.56
2023-10-08T08:03:23.196Z,102384.91
2023-10-08T08:05:54.752Z,102384.06
2023-10-08T08:08:24.210Z,102391.09
2023-10-08T08:10:59.056Z,102386.03
2023-10-08T08:13:30.261Z,102389.06
2023-10-08T08:16:11.028Z,102381.28
2023-10-08T08:18:41.196Z,102379.81
2023-10-08T08:21:17.172Z,102390.00
2023-10-08T08:23:50.422Z,102385.47
2023-10-08T08:26:30.503Z,102389.59
2023-10-08T08:29:03.079Z,102399.16
2023-10-08T08:31:33.344Z,102402.00
2023-10-08T08:34:04.143Z,102403.00
2023-10-08T08:36:35.323Z,102414.69
2023-10-08T08:39:07.120Z,102409.31
2023-10-08T08:41:40.383Z,102403.72
2023-10-08T08:44:13.785Z,102404.97
2023-10-08T08:46:46.406Z,102408.25
2023-10-08T08:49:19.882Z,102414.69
2023-10-08T08:51:54.635Z,102414.75
2023-10-08T08:54:25.534Z,102416.50
2023-10-08T08:56:57.051Z,102418.25
2023-10-08T08:59:26.801Z,102422.47
2023-10-08T09:01:56.984Z,102418.03
2023-10-08T09:04:32.211Z,102422.97
2023-10-08T09:07:05.131Z,102422.47
2023-10-08T09:09:35.128Z,102430.88
2023-10-08T09:12:05.969Z,102421.47
2023-10-08T09:14:35.702Z,102429.88
2023-10-08T09:17:05.598Z,102433.00
2023-10-08T09:19:39.326Z,102437.81
2023-10-08T09:22:12.357Z,102431.78
2023-10-08T09:24:42.763Z,102439.00
2023-10-08T09:27:15.395Z,102437.78
2023-10-08T09:29:45.317Z,102433.13
2023-10-08T09:32:24.537Z,102443.63
2023-10-08T09:34:55.624Z,102452.41
2023-10-08T09:37:26.682Z,102447.69
2023-10-08T09:39:58.295Z,102445.97
2023-10-08T09:42:27.861Z,102450.66
2023-10-08T09:44:57.215Z,102450.56
2023-10-08T09:47:30.720Z,102446.50
2023-10-08T09:50:08.972Z,102446.16
2023-10-08T09:52:45.698Z,102453.31
2023-10-08T09:55:15.831Z,102459.78
2023-10-08T09:57:45.040Z,102460.88
2023-10-08T10:00:19.694Z,102461.81
2023-10-08T10:02:49.977Z,102455.78
2023-10-08T10:05:22.608Z,102458.22
2023-10-08T10:07:56.825Z,102466.50
2023-10-08T10:10:31.793Z,102464.47
2023-10-08T10:13:01.763Z,102456.78
2023-10-08T10:15:32.072Z,102462.19
2023-10-08T10:18:11.558Z,102462.78
2023-10-08T10:20:48.023Z,102470.38
2023-10-08T10:23:41.880Z,102468.91
2023-10-08T10:26:26.332Z,102471.91
2023-10-08T10:29:23.012Z,102479.59
2023-10-08T10:31:55.126Z,102483.41
2023-10-08T10:34:28.597Z,102485.53
2023-10-08T10:37:04.499Z,102483.66
2023-10-08T10:39:40.960Z,102475.06
2023-10-08T10:42:21.823Z,102470.28
2023-10-08T10:44:51.990Z,102471.53
2023-10-08T10:47:44.115Z,102478.47
2023-10-08T10:50:28.068Z,102467.88
2023-10-08T10:52:57.032Z,102460.81
2023-10-08T10:55:34.116Z,102458.13
2023-10-08T10:58:08.025Z,102448.38
2023-10-08T11:00:50.482Z,102461.72
2023-10-08T11:03:19.454Z,102452.22
2023-10-08T11:05:56.085Z,102448.63
2023-10-08T11:08:25.944Z,102443.09
2023-10-08T11:10:59.797Z,102436.94
2023-10-08T11:13:38.390Z,102435.41
2023-10-08T11:16:10.367Z,102427.84
2023-10-08T11:18:48.151Z,102429.13
2023-10-08T11:21:18.202Z,102420.28
2023-10-08T11:23:56.607Z,102426.63
2023-10-08T11:26:34.535Z,102426.69
2023-10-08T11:29:04.989Z,102426.03
2023-10-08T11:31:36.259Z,102431.06
2023-10-08T11:34:10.922Z,102442.91
2023-10-08T11:36:54.279Z,102437.69
2023-10-08T11:39:24.199Z,102445.97
2023-10-08T11:42:07.317Z,102441.50
2023-10-08T11:44:38.550Z,102439.13
2023-10-08T11:47:15.106Z,102442.59
2023-10-08T11:49:51.949Z,102438.75
2023-10-08T11:52:23.065Z,102447.72
2023-10-08T11:54:54.727Z,102451.50
2023-10-08T11:57:26.995Z,102448.63
2023-10-08T11:59:57.249Z,102442.97
2023-10-08T12:02:28.021Z,102439.25
2023-10-08T12:04:59.173Z,102431.31
2023-10-08T12:07:29.301Z,102426.75
2023-10-08T12:09:58.811Z,102426.13
2023-10-08T12:12:32.081Z,102433.41
2023-10-08T12:15:04.629Z,102434.22
2023-10-08T12:17:40.386Z,102439.47
2023-10-08T12:20:24.228Z,102436.25
2023-10-08T12:22:54.118Z,102433.84
2023-10-08T12:25:23.851Z,102422.88
2023-10-08T12:27:54.423Z,102411.66
2023-10-08T12:30:31.609Z,102406.47
2023-10-08T12:33:02.072Z,102405.78
2023-10-08T12:35:31.456Z,102407.00
2023-10-08T12:38:01.169Z,102406.13
2023-10-08T12:40:43.142Z,102408.91
2023-10-08T12:43:13.895Z,102409.53
2023-10-08T12:45:45.025Z,102429.81
2023-10-08T12:48:15.256Z,102426.50
2023-10-08T12:50:44.704Z,102434.38
2023-10-08T12:53:16.797Z,102438.25
2023-10-08T12:55:47.308Z,102436.06
2023-10-08T12:58:17.819Z,102431.56
2023-10-08T13:00:50.664Z,102427.31
2023-10-08T13:03:24.459Z,102433.72
2023-10-08T13:05:54.811Z,102433.25
2023-10-08T13:08:23.923Z,102440.19
2023-10-08T13:10:53.187Z,102439.50
2023-10-08T13:13:27.102Z,102444.50
2023-10-08T13:15:58.815Z,102443.31
2023-10-08T13:18:28.219Z,102460.03
2023-10-08T13:20:58.871Z,102450.97
2023-10-08T13:23:28.098Z,102456.03
2023-10-08T13:25:59.482Z,102456.38
2023-10-08T13:28:29.955Z,102458.94
2023-10-08T13:30:59.255Z,102445.50
2023-10-08T13:33:29.970Z,102446.06
2023-10-08T13:36:15.186Z,102449.34
2023-10-08T13:38:48.097Z,102454.91
2023-10-08T13:41:19.077Z,102448.88
2023-10-08T13:43:52.711Z,102440.91
2023-10-08T13:46:24.051Z,102448.00
2023-10-08T13:48:53.564Z,102447.28
2023-10-08T13:51:26.945Z,102454.25
2023-10-08T13:54:00.723Z,102456.66
2023-10-08T13:56:32.413Z,102451.94
2023-10-08T13:59:12.982Z,102454.75
2023-10-08T14:01:46.916Z,102454.47
2023-10-08T14:04:21.224Z,102459.16
2023-10-08T14:06:53.430Z,102458.41
2023-10-08T14:09:32.414Z,102463.81
2023-10-08T14:12:02.430Z,102460.41
2023-10-08T14:14:34.689Z,102466.34
2023-10-08T14:17:07.464Z,102458.75
2023-10-08T14:19:47.566Z,102456.22
2023-10-08T14:22:17.731Z,102453.78
2023-10-08T14:24:48.088Z,102450.78
2023-10-08T14:27:19.517Z,102454.00
2023-10-08T14:29:52.917Z,102434.66
2023-10-08T14:32:25.433Z,102438.53
2023-10-08T14:35:14.134Z,102433.84
2023-10-08T14:38:00.793Z,102443.38
2023-10-08T14:40:47.249Z,102439.44
2023-10-08T14:43:17.166Z,102437.06
2023-10-08T14:45:48.215Z,102422.03
2023-10-08T14:48:17.667Z,102417.91
2023-10-08T14:50:47.159Z,102423.16
2023-10-08T14:53:16.297Z,102430.78
2023-10-08T14:55:45.403Z,102419.97
2023-10-08T14:58:15.428Z,102409.13
2023-10-08T15:00:46.581Z,102406.53
2023-10-08T15:03:17.529Z,102397.59
2023-10-08T15:05:46.780Z,102403.38
2023-10-08T15:08:16.451Z,102414.56
2023-10-08T15:10:47.168Z,102420.38
2023-10-08T15:13:16.991Z,102412.06
2023-10-08T15:15:46.897Z,102411.25
2023-10-08T15:18:19.793Z,102405.66
2023-10-08T15:20:49.118Z,102412.94
2023-10-08T15:23:18.285Z,102409.75
2023-10-08T15:25:47.394Z,102403.00
2023-10-08T15:28:16.481Z,102399.53
2023-10-08T15:30:45.967Z,102388.72
2023-10-08T15:33:17.501Z,102386.19
2023-10-08T15:35:46.760Z,102404.41
2023-10-08T15:38:15.944Z,102411.25
2023-10-08T15:40:45.631Z,102411.13
2023-10-08T15:43:14.742Z,102418.09
2023-10-08T15:45:46.169Z,102411.78
2023-10-08T15:48:16.722Z,102398.63
2023-10-08T15:50:45.888Z,102390.19
2023-10-08T15:53:15.036Z,102392.38
2023-10-08T15:55:44.556Z,102385.25
2023-10-08T15:58:13.646Z,102381.34
2023-10-08T16:00:42.753Z,102376.50
2023-10-08T16:03:13.068Z,102372.50
2023-10-08T16:05:43.957Z,102368.41
2023-10-08T16:08:13.068Z,102369.75
2023-10-08T16:10:42.770Z,102361.34
2023-10-08T16:13:12.434Z,102371.97
2023-10-08T16:15:41.918Z,102373.44
2023-10-08T16:18:11.893Z,102374.69
2023-10-08T16:20:41.679Z,102380.72
2023-10-08T16:23:13.563Z,102385.84
2023-10-08T16:25:43.409Z,102378.69
2023-10-08T16:28:13.695Z,102384.91
2023-10-08T16:30:44.784Z,102384.78
2023-10-08T16:33:17.281Z,102380.63
2023-10-08T16:35:48.039Z,102373.25
2023-10-08T16:38:19.404Z,102361.88
2023-10-08T16:40:48.606Z,102350.16
2023-10-08T16:43:18.280Z,102350.16
2023-10-08T16:45:50.388Z,102357.75
2023-10-08T16:48:22.272Z,102365.34
2023-10-08T16:50:52.256Z,102385.53
2023-10-08T16:53:23.127Z,102384.16
2023-10-08T16:55:52.724Z,102375.41
2023-10-08T16:58:23.417Z,102380.56
2023-10-08T17:00:53.347Z,102383.63
2023-10-08T17:03:25.160Z,102368.47
2023-10-08T17:05:54.776Z,102360.97
2023-10-08T17:08:25.662Z,102351.09
2023-10-08T17:10:54.964Z,102349.50
2023-10-08T17:13:25.867Z,102335.91
2023-10-08T17:15:57.140Z,102335.06
2023-10-08T17:18:30.603Z,102338.34
2023-10-08T17:21:00.183Z,102346.78
2023-10-08T17:23:31.055Z,102356.66
2023-10-08T17:26:01.456Z,102340.34
2023-10-08T17:28:30.737Z,102332.38
2023-10-08T17:31:00.160Z,102320.00
2023-10-08T17:33:30.190Z,102318.00
2023-10-08T17:35:59.716Z,102314.88
2023-10-08T17:38:32.200Z,102302.75
2023-10-08T17:41:04.757Z,102309.28
2023-10-08T17:43:34.909Z,102309.06
2023-10-08T17:46:05.431Z,102306.44
2023-10-08T17:48:37.762Z,102299.34
2023-10-08T17:51:07.587Z,102300.13
2023-10-08T17:53:38.164Z,102292.34
2023-10-08T17:56:08.232Z,102293.06
2023-10-08T17:58:38.120Z,102291.94
2023-10-08T18:01:14.828Z,102283.81
2023-10-08T18:03:49.517Z,102274.88
2023-10-08T18:06:20.327Z,102267.84
2023-10-08T18:08:52.991Z,102265.94
2023-10-08T18:11:23.558Z,102261.75
2023-10-08T18:13:53.226Z,102262.69
2023-10-08T18:16:22.750Z,102268.28
2023-10-08T18:18:52.226Z,102267.19
2023-10-08T18:21:23.009Z,102259.84
2023-10-08T18:23:54.460Z,102253.44
2023-10-08T18:26:24.464Z,102245.53
2023-10-08T18:28:55.599Z,102238.16
2023-10-08T18:31:24.880Z,102234.56
2023-10-08T18:33:54.308Z,102232.28
2023-10-08T18:36:25.519Z,102224.91
2023-10-08T18:38:58.707Z,102228.78
2023-10-08T18:41:28.189Z,102223.81
2023-10-08T18:43:58.053Z,102219.19
2023-10-08T18:46:27.320Z,102231.75
2023-10-08T18:48:57.441Z,102254.66
2023-10-08T18:51:26.856Z,102264.16
2023-10-08T18:53:57.692Z,102257.75
2023-10-08T18:56:28.622Z,102248.16
2023-10-08T18:58:58.375Z,102268.16
2023-10-08T19:01:30.024Z,102267.00
2023-10-08T19:03:59.590Z,102265.31
2023-10-08T19:06:30.171Z,102254.56
2023-10-08T19:09:02.724Z,102240.91
2023-10-08T19:11:34.255Z,102247.22
2023-10-08T19:14:04.979Z,102243.75
2023-10-08T19:16:34.237Z,102233.25
2023-10-08T19:19:04.072Z,102234.03
2023-10-08T19:21:34.232Z,102244.69
2023-10-08T19:24:05.479Z,102238.59
2023-10-08T19:26:34.787Z,102232.47
2023-10-08T19:29:04.769Z,102225.16
2023-10-08T19:31:34.495Z,102220.44
2023-10-08T19:34:08.380Z,102228.63
2023-10-08T19:36:37.804Z,102236.38
2023-10-08T19:39:14.545Z,102223.06
2023-10-08T19:41:44.095Z,102217.25
2023-10-08T19:44:13.528Z,102203.25
2023-10-08T19:46:42.717Z,102202.94
2023-10-08T19:49:13.306Z,102211.38
2023-10-08T19:51:43.953Z,102214.50
2023-10-08T19:54:17.750Z,102214.94
2023-10-08T19:56:46.936Z,102210.09
2023-10-08T19:59:17.466Z,102206.81
2023-10-08T20:01:46.687Z,102204.72
2023-10-08T20:04:16.239Z,102211.88
2023-10-08T20:06:45.843Z,102208.06
2023-10-08T20:09:20.495Z,102209.00
2023-10-08T20:11:49.973Z,102206.38
2023-10-08T20:14:19.389Z,102196.50
2023-10-08T20:16:48.948Z,102189.34
2023-10-08T20:19:19.985Z,102184.47
2023-10-08T20:21:50.520Z,102180.78
2023-10-08T20:24:21.235Z,102177.94
2023-10-08T20:26:50.760Z,102180.91
2023-10-08T20:29:20.013Z,102182.31
2023-10-08T20:31:49.774Z,102193.03
2023-10-08T20:34:19.368Z,102190.06
2023-10-08T20:36:48.670Z,102186.22
2023-10-08T20:39:20.974Z,102184.50
2023-10-08T20:41:51.539Z,102173.38
2023-10-08T20:44:20.678Z,102173.38
2023-10-08T20:46:50.110Z,102170.22
2023-10-08T20:49:19.287Z,102175.69
2023-10-08T20:51:48.426Z,102170.41
2023-10-08T20:54:17.874Z,102165.28
2023-10-08T20:56:47.165Z,102158.69
2023-10-08T20:59:17.587Z,102163.81
2023-10-08T21:01:48.170Z,102157.94
2023-10-08T21:04:18.238Z,102163.25
2023-10-08T21:06:48.219Z,102176.94
2023-10-08T21:09:17.697Z,102165.03
2023-10-08T21:11:47.707Z,102166.25
2023-10-08T21:14:18.184Z,102150.06
2023-10-08T21:16:48.806Z,102158.50
2023-10-08T21:19:17.911Z,102154.09
2023-10-08T21:21:47.196Z,102157.84
2023-10-08T21:24:16.385Z,102157.56
2023-10-08T21:26:45.584Z,102162.97
2023-10-08T21:29:15.654Z,102172.75
2023-10-08T21:31:46.479Z,102164.97
2023-10-08T21:34:15.636Z,102170.97
2023-10-08T21:36:44.790Z,102172.47
2023-10-08T21:39:17.259Z,102160.31
2023-10-08T21:41:46.959Z,102148.22
2023-10-08T21:44:16.046Z,102143.41
2023-10-08T21:46:46.507Z,102138.94
2023-10-08T21:49:16.619Z,102142.91
2023-10-08T21:51:45.880Z,102144.41
2023-10-08T21:54:15.607Z,102139.72
2023-10-08T21:56:44.712Z,102141.75
2023-10-08T21:59:15.179Z,102130.50
2023-10-08T22:01:46.467Z,102132.28
2023-10-08T22:04:17.248Z,102127.72
2023-10-08T22:06:46.332Z,102113.53
2023-10-08T22:09:17.129Z,102101.50
2023-10-08T22:11:50.370Z,102101.06
2023-10-08T22:14:19.788Z,102098.16
2023-10-08T22:16:51.239Z,102104.34
2023-10-08T22:19:22.846Z,102109.56
2023-10-08T22:21:52.047Z,102103.75
2023-10-08T22:24:24.412Z,102102.41
2023-10-08T22:26:56.120Z,102091.56
2023-10-08T22:29:25.652Z,102076.03
2023-10-08T22:32:00.393Z,102063.03
2023-10-08T22:34:31.466Z,102074.53
2023-10-08T22:37:08.693Z,102076.97
2023-10-08T22:39:37.920Z,102079.84
2023-10-08T22:42:09.912Z,102070.75
2023-10-08T22:44:39.198Z,102066.59
2023-10-08T22:47:11.739Z,102064.06
2023-10-08T22:49:41.525Z,102059.41
2023-10-08T22:52:10.872Z,102053.78
2023-10-08T22:54:41.083Z,102037.75
2023-10-08T22:57:10.855Z,102039.38
2023-10-08T22:59:40.884Z,102028.34
2023-10-08T23:02:13.732Z,102026.16
2023-10-08T23:04:45.109Z,102034.81
2023-10-08T23:07:14.426Z,102025.28
2023-10-08T23:09:43.931Z,102027.69
2023-10-08T23:12:14.069Z,102032.56
2023-10-08T23:14:43.657Z,102021.50
2023-10-08T23:17:15.291Z,102014.72
2023-10-08T23:19:45.817Z,102001.19
2023-10-08T23:22:15.936Z,101991.81
2023-10-08T23:24:45.711Z,101987.31
2023-10-08T23:27:13.921Z,101974.44
2023-10-08T23:29:43.144Z,101969.63
2023-10-08T23:32:13.591Z,101981.78
2023-10-08T23:34:43.082Z,101977.47
2023-10-08T23:37:22.725Z,101981.25
2023-10-08T23:39:55.696Z,101975.56
2023-10-08T23:42:33.031Z,101975.19
2023-10-08T23:45:06.678Z,101976.25
2023-10-08T23:47:47.083Z,101998.00
2023-10-08T23:50:17.248Z,102015.00
2023-10-08T23:52:48.722Z,101995.88
2023-10-08T23:55:24.162Z,101991.06
2023-10-08T23:58:07.549Z,101991.41
